Time;durP1;ratioP1;P1;durP2;ratioP2;P2;SDS_P1;SDS_P2;PMS_P1;PMS_P2;Temp;Humidity;BMP_temperature;BMP_pressure;BME280_temperature;BME280_humidity;BME280_pressure;Samples;Min_cycle;Max_cycle;Signal;HPM_P1;HPM_P2
2022/05/27 00:00:44;;;;;;;3.98;1.98;;;;;;;16.59;50.44;101334.44;1759021;81;27632;-55
2022/05/27 00:03:12;;;;;;;6.12;2.37;;;;;;;16.63;50.34;101337.19;1767115;79;25920;-54
2022/05/27 00:05:39;;;;;;;5.97;2.30;;;;;;;16.68;50.97;101336.19;1769492;81;25649;-55
2022/05/27 00:08:07;;;;;;;8.83;2.90;;;;;;;16.69;50.83;101332.45;1768889;81;25801;-55
2022/05/27 00:10:35;;;;;;;8.65;2.60;;;;;;;16.73;50.98;101327.05;1761100;81;25871;-55
2022/05/27 00:13:03;;;;;;;5.87;2.37;;;;;;;16.79;50.95;101331.48;1768499;81;27454;-54
2022/05/27 00:15:30;;;;;;;7.00;2.60;;;;;;;16.85;51.03;101337.64;1764781;81;25690;-53
2022/05/27 00:17:57;;;;;;;8.43;2.58;;;;;;;16.89;51.16;101326.28;1766070;81;25532;-54
2022/05/27 00:20:24;;;;;;;4.60;2.17;;;;;;;16.90;50.87;101325.23;1761678;81;25794;-54
2022/05/27 00:22:51;;;;;;;9.60;2.25;;;;;;;16.95;50.74;101326.13;1768809;81;27254;-55
2022/05/27 00:25:19;;;;;;;8.25;2.67;;;;;;;16.99;50.78;101330.73;1761476;81;27433;-53
2022/05/27 00:27:46;;;;;;;6.42;2.02;;;;;;;16.95;51.06;101331.56;1756567;81;25775;-55
2022/05/27 00:30:13;;;;;;;2.90;1.92;;;;;;;16.90;51.21;101331.19;1730210;82;25821;-55
2022/05/27 00:32:41;;;;;;;3.98;2.10;;;;;;;16.92;51.15;101323.73;1734312;82;25751;-54
2022/05/27 00:35:08;;;;;;;9.55;1.95;;;;;;;16.95;51.36;101323.94;1735175;82;25786;-54
2022/05/27 00:37:36;;;;;;;5.42;2.62;;;;;;;16.98;51.42;101320.91;1735513;82;27712;-54
2022/05/27 00:40:04;;;;;;;3.33;1.72;;;;;;;16.99;51.56;101319.86;1735759;82;26332;-53
2022/05/27 00:42:31;;;;;;;4.47;1.90;;;;;;;17.02;51.27;101318.17;1734590;82;25681;-53
2022/05/27 00:44:58;;;;;;;4.10;1.80;;;;;;;17.07;51.50;101314.47;1734361;82;26420;-54
2022/05/27 00:47:29;;;;;;;8.58;2.52;;;;;;;17.12;51.84;101313.98;1735924;82;26078;-53
2022/05/27 00:50:00;;;;;;;4.00;1.92;;;;;;;17.10;51.80;101312.77;1736022;81;27540;-54
2022/05/27 00:52:31;;;;;;;7.10;2.30;;;;;;;17.11;51.97;101310.91;1734820;81;26182;-53
2022/05/27 00:55:00;;;;;;;4.85;2.15;;;;;;;17.11;52.06;101304.95;1731247;81;25825;-54
2022/05/27 00:57:32;;;;;;;3.52;1.98;;;;;;;17.10;52.44;101305.97;1701585;84;26392;-54
2022/05/27 01:00:08;;;;;;;4.05;2.20;;;;;;;17.09;52.13;101305.62;1703347;84;25634;-52
2022/05/27 01:02:36;;;;;;;7.15;2.45;;;;;;;17.09;52.32;101304.78;1702426;82;27437;-53
2022/05/27 01:05:06;;;;;;;3.58;2.17;;;;;;;17.12;52.37;101297.14;1704858;84;26146;-54
2022/05/27 01:07:33;;;;;;;5.47;2.15;;;;;;;17.13;53.06;101300.70;1704103;82;25637;-54
2022/05/27 01:10:04;;;;;;;3.67;2.30;;;;;;;17.11;52.50;101303.59;1703310;82;25839;-53
2022/05/27 01:12:59;;;;;;;4.95;2.22;;;;;;;17.11;52.61;101302.23;1703385;82;25511;-55
2022/05/27 01:16:00;;;;;;;4.53;2.20;;;;;;;17.12;52.94;101298.50;1704489;82;27536;-55
2022/05/27 01:22:11;;;;;;;8.35;2.77;;;;;;;17.19;52.79;101301.41;1704168;84;25693;-54
2022/05/27 01:25:26;;;;;;;5.97;2.20;;;;;;;17.24;53.27;101302.27;1703251;84;25798;-54
2022/05/27 01:28:27;;;;;;;3.42;2.20;;;;;;;17.25;52.73;101295.30;1623922;85;25878;-53
2022/05/27 01:31:02;;;;;;;5.92;2.52;;;;;;;17.25;53.21;101299.38;1735789;82;27577;-54
2022/05/27 01:33:46;;;;;;;3.20;2.17;;;;;;;17.26;53.01;101297.00;1730552;82;26233;-54
2022/05/27 01:36:39;;;;;;;;;;;;;;;17.26;53.15;101293.45;1736211;81;25658;-53
2022/05/27 01:39:31;;;;;;;5.67;2.25;;;;;;;17.24;53.72;101289.52;1731459;82;25996;-55
2022/05/27 01:42:18;;;;;;;4.70;1.90;;;;;;;17.22;53.75;101288.83;1730107;82;25787;-53
2022/05/27 01:45:04;;;;;;;7.03;3.52;;;;;;;17.25;54.02;101292.58;1732577;82;27579;-54
2022/05/27 01:47:54;;;;;;;6.47;2.55;;;;;;;17.27;53.61;101293.76;1732580;82;25747;-54
2022/05/27 01:50:35;;;;;;;10.38;2.95;;;;;;;17.28;53.84;101293.61;1727109;81;25627;-54
2022/05/27 01:53:23;;;;;;;7.47;3.80;;;;;;;17.26;53.96;101292.92;1706990;82;25831;-54
2022/05/27 01:56:14;;;;;;;8.20;2.85;;;;;;;17.25;54.36;101297.17;1710540;81;25822;-54
2022/05/27 01:58:49;;;;;;;4.40;2.08;;;;;;;17.25;54.06;101294.46;1702630;84;27505;-53
2022/05/27 02:01:21;;;;;;;5.05;2.55;;;;;;;17.26;54.02;101294.80;1705939;84;25732;-54
2022/05/27 02:03:58;;;;;;;5.47;2.50;;;;;;;17.27;54.21;101299.20;1701060;84;25736;-53
2022/05/27 02:06:40;;;;;;;4.17;2.12;;;;;;;17.25;54.21;101300.73;1696592;84;25788;-54
2022/05/27 02:09:20;;;;;;;5.55;1.98;;;;;;;17.23;54.54;101295.13;1700810;83;25792;-54
2022/05/27 02:11:53;;;;;;;8.10;2.58;;;;;;;17.21;54.72;101296.14;1703042;84;27615;-54
2022/05/27 02:14:27;;;;;;;3.70;1.85;;;;;;;17.19;54.99;101304.97;1706056;82;27468;-54
2022/05/27 02:17:08;;;;;;;5.42;2.08;;;;;;;17.17;55.66;101300.20;1699548;84;25657;-53
2022/05/27 02:19:46;;;;;;;6.45;2.55;;;;;;;17.13;55.53;101301.56;1701708;83;26557;-54
2022/05/27 02:22:18;;;;;;;4.15;2.52;;;;;;;17.09;55.68;101296.11;1703188;82;25872;-53
2022/05/27 02:24:52;;;;;;;8.83;2.75;;;;;;;17.07;55.71;101299.52;1703157;82;27468;-53
2022/05/27 02:27:27;;;;;;;4.65;2.50;;;;;;;17.10;55.60;101298.33;1701317;82;25810;-54
2022/05/27 02:29:59;;;;;;;5.17;2.55;;;;;;;17.11;55.48;101296.80;1705014;84;25821;-54
2022/05/27 02:32:34;;;;;;;10.53;2.98;;;;;;;17.13;55.66;101291.19;1726991;81;25949;-53
2022/05/27 02:35:09;;;;;;;5.67;2.22;;;;;;;17.14;55.96;101294.25;1722605;81;25819;-52
2022/05/27 02:37:41;;;;;;;6.95;2.60;;;;;;;17.13;55.90;101297.48;1719598;82;27915;-54
2022/05/27 02:40:21;;;;;;;5.95;2.60;;;;;;;17.11;56.10;101301.40;1728523;81;25734;-55
2022/05/27 02:43:13;;;;;;;10.13;2.67;;;;;;;17.13;56.34;101297.98;1726788;82;25717;-54
2022/05/27 02:45:47;;;;;;;8.88;3.27;;;;;;;17.15;56.10;101306.83;1735351;82;25806;-55
2022/05/27 02:48:35;;;;;;;6.62;2.58;;;;;;;17.18;56.75;101302.42;1734971;82;25502;-54
2022/05/27 02:51:25;;;;;;;9.40;2.62;;;;;;;17.18;56.65;101308.70;1729943;81;27527;-55
2022/05/27 02:54:20;;;;;;;6.90;4.78;;;;;;;17.21;56.96;101307.55;1735798;82;25671;-55
2022/05/27 02:56:52;;;;;;;6.50;2.92;;;;;;;17.20;57.26;101305.31;1710642;82;25704;-55
2022/05/27 02:59:20;;;;;;;5.03;2.30;;;;;;;17.24;57.35;101308.55;1705010;81;25928;-55
2022/05/27 03:01:47;;;;;;;7.35;2.40;;;;;;;17.27;57.11;101308.71;1703568;83;25519;-53
2022/05/27 03:04:17;;;;;;;5.22;2.40;;;;;;;17.29;57.38;101313.48;1706294;84;27547;-56
2022/05/27 03:06:55;;;;;;;5.10;2.30;;;;;;;17.31;57.48;101310.09;1705667;82;25753;-54
2022/05/27 03:10:08;;;;;;;5.08;2.95;;;;;;;17.32;57.38;101310.44;1706488;82;25706;-55
2022/05/27 03:13:11;;;;;;;5.30;2.20;;;;;;;17.35;57.92;101314.16;1706590;82;25706;-53
2022/05/27 03:16:05;;;;;;;11.30;2.47;;;;;;;17.30;57.61;101314.66;1699449;83;25901;-54
2022/05/27 03:19:00;;;;;;;4.37;2.77;;;;;;;17.30;57.60;101317.38;1730300;82;27574;-54
2022/05/27 03:22:00;;;;;;;5.33;2.45;;;;;;;17.35;57.68;101322.32;1716692;82;25867;-54
2022/05/27 03:25:07;;;;;;;6.22;2.75;;;;;;;17.37;57.71;101336.61;1721583;82;25762;-53
2022/05/27 03:27:48;;;;;;;6.25;2.95;;;;;;;17.35;57.74;101344.94;1711662;82;25791;-54
2022/05/27 03:30:32;;;;;;;4.35;2.70;;;;;;;17.33;57.82;101345.61;1732519;82;25730;-54
2022/05/27 03:33:28;;;;;;;7.45;2.25;;;;;;;17.35;57.82;101348.16;1731160;82;27471;-54
2022/05/27 03:36:15;;;;;;;11.48;2.52;;;;;;;17.37;57.52;101348.84;1686424;81;25798;-53
2022/05/27 03:39:07;;;;;;;8.78;2.75;;;;;;;17.43;57.39;101349.56;1721906;81;25776;-53
2022/05/27 03:41:45;;;;;;;6.65;2.50;;;;;;;17.46;57.28;101353.80;1732488;82;25790;-53
2022/05/27 03:44:19;;;;;;;14.20;2.92;;;;;;;17.50;57.53;101347.86;1732513;82;25826;-54
2022/05/27 03:46:50;;;;;;;16.77;6.67;;;;;;;17.49;57.97;101339.36;1712777;82;27518;-54
2022/05/27 03:49:17;;;;;;;12.25;3.80;;;;;;;17.49;57.75;101338.00;1703811;82;25814;-54
2022/05/27 03:51:58;;;;;;;8.73;2.90;;;;;;;17.55;57.76;101343.77;1703441;82;25735;-54
2022/05/27 03:54:26;;;;;;;12.25;2.45;;;;;;;17.60;57.92;101348.22;1703617;83;25826;-52
2022/05/27 03:56:54;;;;;;;3.98;2.55;;;;;;;17.63;57.56;101349.22;1728324;82;25803;-54
2022/05/27 03:59:22;;;;;;;5.53;2.62;;;;;;;17.65;57.42;101350.78;1725731;82;27136;-55
2022/05/27 04:01:52;;;;;;;5.58;2.60;;;;;;;17.72;57.56;101356.89;1725714;82;25737;-54
2022/05/27 04:04:23;;;;;;;11.45;2.58;;;;;;;17.76;57.41;101359.11;1721831;82;25736;-54
2022/05/27 04:06:50;;;;;;;11.50;4.17;;;;;;;17.83;57.10;101356.04;1732118;82;25846;-53
2022/05/27 04:09:20;;;;;;;9.60;2.98;;;;;;;17.86;56.45;101359.45;1751961;81;25747;-54
2022/05/27 04:11:48;;;;;;;6.58;2.83;;;;;;;17.88;55.79;101356.05;1729673;81;27442;-55
2022/05/27 04:14:15;;;;;;;7.72;3.75;;;;;;;17.89;55.13;101369.97;1733422;81;25732;-54
2022/05/27 04:16:42;;;;;;;9.25;3.30;;;;;;;17.87;54.65;101362.52;1748938;81;25669;-54
2022/05/27 04:19:09;;;;;;;9.58;2.87;;;;;;;17.83;54.33;101363.37;1730059;81;25978;-53
2022/05/27 04:21:39;;;;;;;11.97;2.85;;;;;;;17.76;54.21;101365.91;1748874;81;27298;-55
2022/05/27 04:24:08;;;;;;;7.47;2.92;;;;;;;17.71;54.43;101366.91;1753738;81;27474;-54
2022/05/27 04:26:36;;;;;;;11.25;3.27;;;;;;;17.68;54.35;101370.83;1741883;81;25981;-54
2022/05/27 04:29:03;;;;;;;6.78;3.15;;;;;;;17.65;54.32;101362.15;1741612;81;25747;-54
2022/05/27 04:31:30;;;;;;;9.40;2.92;;;;;;;17.70;54.28;101372.03;1750224;81;26553;-53
2022/05/27 04:33:58;;;;;;;10.00;3.08;;;;;;;17.77;54.23;101373.05;1736521;81;25802;-53
2022/05/27 04:36:25;;;;;;;12.05;2.65;;;;;;;17.77;53.98;101368.11;1751877;81;27475;-54
2022/05/27 04:38:52;;;;;;;5.92;2.77;;;;;;;17.78;53.86;101370.68;1752932;81;26191;-54
2022/05/27 04:41:21;;;;;;;8.90;2.92;;;;;;;17.81;53.69;101370.84;1746202;81;25888;-55
2022/05/27 04:43:47;;;;;;;11.33;3.25;;;;;;;17.89;53.74;101376.78;1750065;81;25822;-54
2022/05/27 04:46:14;;;;;;;14.65;3.55;;;;;;;17.99;53.49;101378.36;1754437;81;25788;-55
2022/05/27 04:48:41;;;;;;;12.10;2.83;;;;;;;18.07;53.00;101380.22;1761092;81;27503;-55
2022/05/27 04:51:08;;;;;;;5.53;2.70;;;;;;;18.17;52.91;101373.25;1754900;81;25724;-55
2022/05/27 04:53:35;;;;;;;9.30;3.08;;;;;;;18.28;52.75;101379.71;1756437;81;25748;-55
2022/05/27 04:56:02;;;;;;;11.80;3.37;;;;;;;18.40;52.31;101379.33;1740345;81;25767;-55
2022/05/27 04:58:29;;;;;;;7.08;2.80;;;;;;;18.48;52.12;101380.67;1723775;82;25684;-56
2022/05/27 05:00:58;;;;;;;5.45;2.60;;;;;;;18.52;51.80;101373.86;1724220;82;27497;-55
2022/05/27 05:03:24;;;;;;;7.40;2.70;;;;;;;18.56;51.50;101382.02;1732588;82;25801;-53
2022/05/27 05:05:51;;;;;;;10.05;2.70;;;;;;;18.57;51.50;101380.99;1732540;82;25822;-55
2022/05/27 05:08:33;;;;;;;8.03;2.52;;;;;;;18.56;51.32;101378.45;1732464;81;27905;-54
2022/05/27 05:11:03;;;;;;;5.53;2.60;;;;;;;18.57;51.14;101385.08;1727205;82;26149;-55
2022/05/27 05:13:32;;;;;;;7.85;2.20;;;;;;;18.61;51.11;101382.85;1730629;82;27573;-55
2022/05/27 05:15:59;;;;;;;6.72;2.72;;;;;;;18.65;50.77;101376.57;1732552;82;25674;-55
2022/05/27 05:18:27;;;;;;;9.60;2.95;;;;;;;18.65;50.76;101373.84;1729224;82;25644;-55
2022/05/27 05:20:53;;;;;;;9.55;2.90;;;;;;;18.69;50.55;101377.91;1722044;82;25807;-54
2022/05/27 05:23:20;;;;;;;4.60;2.40;;;;;;;18.73;50.15;101381.99;1725701;82;25807;-55
2022/05/27 05:25:47;;;;;;;11.97;2.70;;;;;;;18.75;50.17;101375.33;1722173;82;27438;-55
2022/05/27 05:28:14;;;;;;;13.05;2.98;;;;;;;18.77;50.21;101376.51;1728169;82;26396;-55
2022/05/27 05:30:42;;;;;;;9.03;2.30;;;;;;;18.81;50.13;101367.47;1724075;82;25868;-54
2022/05/27 05:33:08;;;;;;;11.80;2.95;;;;;;;18.85;49.91;101371.55;1728095;83;26726;-53
2022/05/27 05:35:35;;;;;;;14.83;3.33;;;;;;;18.86;49.99;101366.44;1725860;82;25553;-56
2022/05/27 05:38:03;;;;;;;7.37;2.67;;;;;;;18.91;50.05;101370.34;1727988;83;27637;-53
2022/05/27 05:40:31;;;;;;;11.18;3.77;;;;;;;19.00;49.80;101368.97;1718194;81;25864;-53
2022/05/27 05:43:00;;;;;;;9.35;2.80;;;;;;;19.08;49.61;101373.86;1722870;82;25754;-55
2022/05/27 05:45:28;;;;;;;9.23;2.58;;;;;;;19.15;49.09;101374.00;1718327;82;25800;-54
2022/05/27 05:47:55;;;;;;;9.08;3.12;;;;;;;19.23;49.08;101374.45;1734504;82;25761;-56
2022/05/27 05:50:22;;;;;;;10.90;2.90;;;;;;;19.29;48.45;101374.25;1732653;82;27479;-54
2022/05/27 05:52:50;;;;;;;19.37;3.72;;;;;;;19.36;48.32;101381.55;1756082;81;26118;-55
2022/05/27 05:55:18;;;;;;;9.30;2.45;;;;;;;19.45;48.36;101376.91;1755202;81;25805;-56
2022/05/27 05:57:47;;;;;;;21.27;2.92;;;;;;;19.51;48.36;101378.91;1769002;81;25939;-56
2022/05/27 06:00:20;;;;;;;5.72;2.55;;;;;;;19.60;48.32;101372.86;1766522;81;25842;-56
2022/05/27 06:02:46;;;;;;;7.87;2.77;;;;;;;19.66;47.58;101374.02;1764785;81;27379;-56
2022/05/27 06:05:13;;;;;;;9.33;3.00;;;;;;;19.69;47.52;101373.14;1761249;81;25768;-56
2022/05/27 06:07:43;;;;;;;18.70;2.62;;;;;;;19.75;47.56;101373.46;1763117;81;25746;-55
2022/05/27 06:10:13;;;;;;;8.15;2.67;;;;;;;19.80;47.80;101376.48;1761544;81;26665;-55
2022/05/27 06:12:40;;;;;;;11.18;2.37;;;;;;;19.84;47.21;101370.47;1762905;81;25725;-56
2022/05/27 06:15:12;;;;;;;9.00;1.98;;;;;;;19.84;47.04;101366.38;1760245;81;27624;-54
2022/05/27 06:17:40;;;;;;;6.72;2.52;;;;;;;19.88;46.46;101366.89;1757457;81;25802;-55
2022/05/27 06:20:09;;;;;;;12.98;2.67;;;;;;;19.93;46.52;101360.38;1767996;81;25547;-55
2022/05/27 06:22:36;;;;;;;3.58;1.50;;;;;;;20.00;46.55;101366.80;1769405;81;25769;-53
2022/05/27 06:25:05;;;;;;;2.10;1.25;;;;;;;20.05;45.44;101368.97;1762467;81;25686;-55
2022/05/27 06:27:33;;;;;;;17.40;4.25;;;;;;;20.10;44.43;101369.25;1758277;81;27510;-55
2022/05/27 06:35:26;;;;;;;8.20;1.22;;;;;;;20.27;43.71;101363.13;1704591;84;25866;-55
2022/05/27 06:37:53;;;;;;;2.55;1.40;;;;;;;20.35;43.39;101372.27;1704577;84;25796;-55
2022/05/27 06:40:19;;;;;;;7.17;1.42;;;;;;;20.40;43.30;101360.25;1704206;84;27516;-54
2022/05/27 06:42:46;;;;;;;2.40;1.20;;;;;;;20.45;42.84;101360.55;1671522;85;25878;-54
2022/05/27 06:45:14;;;;;;;11.68;1.22;;;;;;;20.52;42.97;101356.56;1703449;82;25565;-55
2022/05/27 06:47:41;;;;;;;3.52;0.90;;;;;;;20.58;42.66;101364.83;1721826;81;26635;-55
2022/05/27 06:50:10;;;;;;;5.47;1.20;;;;;;;20.64;42.03;101355.90;1717657;82;25931;-54
2022/05/27 06:52:40;;;;;;;4.72;1.10;;;;;;;20.70;41.86;101353.44;1730218;82;27595;-54
2022/05/27 06:55:11;;;;;;;3.22;1.00;;;;;;;20.76;41.78;101351.33;1727648;81;26120;-55
2022/05/27 06:57:38;;;;;;;3.45;1.07;;;;;;;20.82;41.52;101350.59;1704198;84;25531;-55
2022/05/27 07:00:10;;;;;;;2.05;0.90;;;;;;;20.88;41.15;101342.98;1692325;82;26400;-55
2022/05/27 07:02:37;;;;;;;3.52;0.88;;;;;;;20.94;41.05;101339.48;1701039;82;25476;-55
2022/05/27 07:05:06;;;;;;;8.68;0.93;;;;;;;21.02;41.19;101335.80;1697020;84;27485;-55
2022/05/27 07:07:33;;;;;;;5.37;0.90;;;;;;;21.10;40.55;101332.11;1702272;82;25834;-54
2022/05/27 07:09:59;;;;;;;2.20;0.95;;;;;;;21.17;40.24;101341.74;1701627;82;25912;-55
2022/05/27 07:12:27;;;;;;;8.45;1.32;;;;;;;21.21;39.87;101331.59;1702979;82;26601;-54
2022/05/27 07:14:54;;;;;;;39.25;2.25;;;;;;;21.26;39.31;101335.98;1704476;84;25459;-55
2022/05/27 07:17:21;;;;;;;5.97;0.90;;;;;;;21.33;39.27;101332.45;1701106;82;29552;-55
2022/05/27 07:19:48;;;;;;;4.35;1.15;;;;;;;21.36;38.31;101329.34;1706132;82;25451;-55
2022/05/27 07:22:15;;;;;;;6.42;1.20;;;;;;;21.38;38.42;101324.00;1724766;83;26290;-55
2022/05/27 07:24:42;;;;;;;9.98;1.87;;;;;;;21.47;38.64;101320.59;1722707;82;26030;-55
2022/05/27 07:27:09;;;;;;;10.08;2.67;;;;;;;21.63;39.35;101320.06;1723572;81;25927;-55
2022/05/27 07:29:37;;;;;;;4.67;1.10;;;;;;;21.77;38.49;101316.38;1727411;82;27479;-55
2022/05/27 07:32:05;;;;;;;7.08;0.80;;;;;;;21.90;38.19;101318.38;1726933;82;25712;-55
2022/05/27 07:34:32;;;;;;;26.17;1.75;;;;;;;21.98;37.73;101309.19;1719745;82;25745;-55
2022/05/27 07:36:59;;;;;;;13.60;1.20;;;;;;;22.03;38.19;101304.81;1727374;82;25822;-54
2022/05/27 07:39:27;;;;;;;19.55;2.35;;;;;;;22.10;38.11;101299.35;1723926;82;25808;-53
2022/05/27 07:41:53;;;;;;;2.42;1.00;;;;;;;22.18;37.92;101306.08;1731268;82;27405;-55
2022/05/27 07:44:20;;;;;;;8.80;1.12;;;;;;;22.23;37.96;101296.39;1724331;82;25835;-55
2022/05/27 07:46:51;;;;;;;20.12;1.92;;;;;;;22.28;37.94;101293.38;1724592;81;25906;-54
2022/05/27 07:49:19;;;;;;;20.55;2.30;;;;;;;22.41;37.88;101297.28;1723061;82;25833;-54
2022/05/27 07:51:46;;;;;;;11.78;3.42;;;;;;;22.47;37.77;101288.23;1722851;82;25810;-57
2022/05/27 07:54:13;;;;;;;3.45;1.17;;;;;;;22.57;38.39;101287.86;1721220;83;27489;-55
2022/05/27 07:56:42;;;;;;;23.42;1.60;;;;;;;22.65;37.67;101285.80;1731835;81;25759;-55
2022/05/27 07:59:09;;;;;;;6.53;1.40;;;;;;;22.69;37.30;101281.26;1730496;81;25726;-55
2022/05/27 08:01:36;;;;;;;10.25;1.17;;;;;;;22.69;37.27;101276.64;1732772;81;25907;-55
2022/05/27 08:04:05;;;;;;;10.13;1.17;;;;;;;22.77;37.07;101275.62;1732614;82;25759;-55
2022/05/27 08:06:31;;;;;;;1.92;1.00;;;;;;;22.81;37.00;101282.38;1732670;82;27301;-55
2022/05/27 08:08:58;;;;;;;3.12;0.93;;;;;;;22.80;36.75;101277.42;1724901;82;25455;-55
2022/05/27 08:11:25;;;;;;;3.22;1.05;;;;;;;22.84;36.61;101279.23;1728864;81;25562;-55
2022/05/27 08:13:54;;;;;;;7.35;1.45;;;;;;;22.89;36.47;101271.76;1732199;82;25790;-55
2022/05/27 08:16:21;;;;;;;6.40;1.07;;;;;;;23.00;36.78;101265.64;1729452;82;25497;-56
2022/05/27 08:18:48;;;;;;;4.60;1.10;;;;;;;23.10;37.00;101267.47;1731784;82;27519;-56
2022/05/27 08:21:15;;;;;;;6.85;1.22;;;;;;;23.17;35.23;101263.92;1725751;82;25902;-56
2022/05/27 08:23:42;;;;;;;4.87;0.93;;;;;;;23.14;35.16;101264.64;1723824;82;25795;-56
2022/05/27 08:26:09;;;;;;;1.90;0.82;;;;;;;23.18;35.64;101258.72;1722667;82;25858;-54
2022/05/27 08:28:35;;;;;;;4.28;1.00;;;;;;;23.25;35.04;101257.72;1732651;81;27335;-54
2022/05/27 08:31:03;;;;;;;7.70;0.93;;;;;;;23.28;34.89;101263.31;1732610;82;29717;-53
2022/05/27 08:38:01;;;;;;;1.60;1.05;;;;;;;23.34;34.90;101254.27;1731037;81;26133;-55
2022/05/27 08:38:42;;;;;;;2.37;0.90;;;;;;;23.55;35.24;101257.84;1644194;87;25875;-55
2022/05/27 08:41:45;;;;;;;3.52;1.27;;;;;;;23.69;35.15;101244.45;1705500;82;25898;-55
2022/05/27 08:44:19;;;;;;;8.73;1.00;;;;;;;23.79;34.74;101245.92;1728672;81;27547;-53
2022/05/27 08:46:52;;;;;;;7.35;1.20;;;;;;;23.84;33.78;101240.61;1728636;81;26028;-56
2022/05/27 08:49:24;;;;;;;2.47;1.10;;;;;;;23.96;33.75;101238.95;1730653;82;25734;-54
2022/05/27 08:51:56;;;;;;;9.78;1.45;;;;;;;24.06;33.79;101233.00;1732697;81;25909;-55
2022/05/27 08:54:34;;;;;;;6.97;1.52;;;;;;;24.17;33.78;101235.61;1728987;81;26035;-55
2022/05/27 09:00:14;;;;;;;5.28;1.12;;;;;;;24.45;33.07;101222.95;1702062;82;25670;-56
2022/05/27 09:02:49;;;;;;;3.52;1.10;;;;;;;24.67;33.10;101222.13;1701443;81;25813;-54
2022/05/27 09:05:24;;;;;;;8.90;1.07;;;;;;;24.90;32.67;101217.97;1701097;82;25665;-55
2022/05/27 09:08:02;;;;;;;4.47;1.10;;;;;;;25.01;32.00;101212.31;1706590;84;25494;-55
2022/05/27 09:11:00;;;;;;;5.50;1.07;;;;;;;25.24;31.46;101218.58;1700905;82;27498;-55
2022/05/27 09:13:41;;;;;;;4.72;1.20;;;;;;;25.44;31.16;101206.09;1701539;82;25964;-55
2022/05/27 09:16:31;;;;;;;3.70;0.72;;;;;;;25.75;31.19;101203.47;1704332;82;25766;-56
2022/05/27 09:19:27;;;;;;;5.90;1.20;;;;;;;26.04;30.37;101203.81;1694147;84;25782;-55
2022/05/27 09:22:35;;;;;;;2.62;0.90;;;;;;;26.33;29.43;101211.88;1706486;82;25764;-55
2022/05/27 09:25:10;;;;;;;6.15;1.40;;;;;;;26.62;28.62;101202.48;1710086;82;28494;-55
2022/05/27 09:27:45;;;;;;;13.60;1.27;;;;;;;26.87;28.78;101198.22;1709956;81;25948;-55
2022/05/27 09:30:16;;;;;;;6.03;1.17;;;;;;;27.22;28.97;101191.11;1736970;82;25649;-55
2022/05/27 09:32:54;;;;;;;7.28;1.12;;;;;;;27.69;28.47;101179.27;1738398;82;26457;-55
2022/05/27 09:35:45;;;;;;;3.45;0.70;;;;;;;28.00;26.65;101174.95;1737448;82;25477;-55
2022/05/27 09:38:17;;;;;;;3.40;0.75;;;;;;;28.10;26.76;101176.59;1738912;81;28198;-55
2022/05/27 09:40:48;;;;;;;6.22;1.17;;;;;;;28.40;26.84;101171.41;1738398;82;25803;-54
2022/05/27 09:43:48;;;;;;;8.40;0.90;;;;;;;28.77;26.12;101171.03;1739073;82;25634;-54
2022/05/27 09:46:20;;;;;;;2.35;1.07;;;;;;;29.03;25.04;101165.39;1751296;81;26643;-54
2022/05/27 09:48:47;;;;;;;6.05;1.00;;;;;;;29.04;25.37;101157.38;1760732;81;25778;-55
2022/05/27 09:51:17;;;;;;;3.15;0.93;;;;;;;28.81;25.32;101155.59;1734179;82;27491;-55
2022/05/27 09:53:54;;;;;;;5.28;1.22;;;;;;;28.71;26.23;101152.11;1751267;81;25513;-55
2022/05/27 09:56:41;;;;;;;2.42;0.78;;;;;;;28.68;26.06;101153.95;1765821;79;25752;-55
2022/05/27 09:59:23;;;;;;;2.83;0.88;;;;;;;28.51;25.68;101148.91;1759461;81;25847;-55
2022/05/27 10:01:50;;;;;;;2.87;0.70;;;;;;;28.22;26.02;101147.52;1754457;81;26070;-55
2022/05/27 10:04:18;;;;;;;2.60;0.78;;;;;;;28.14;26.31;101134.08;1754710;81;27562;-53
2022/05/27 10:06:47;;;;;;;6.22;1.02;;;;;;;28.17;26.36;101132.22;1758669;81;25718;-55
2022/05/27 10:09:33;;;;;;;5.28;0.90;;;;;;;28.15;26.33;101150.41;1760133;81;25846;-55
2022/05/27 10:11:59;;;;;;;3.72;1.02;;;;;;;27.88;26.85;101138.48;1764764;81;26363;-55
2022/05/27 10:14:33;;;;;;;2.98;0.90;;;;;;;27.75;27.05;101136.83;1765242;81;25728;-54
2022/05/27 10:17:09;;;;;;;2.17;0.72;;;;;;;27.50;27.33;101132.97;1735344;81;27410;-55
2022/05/27 10:19:40;;;;;;;1.40;0.80;;;;;;;27.41;27.55;101135.20;1763977;81;25553;-54
2022/05/27 10:22:30;;;;;;;5.12;1.42;;;;;;;28.01;26.84;101118.58;1756261;81;26471;-54
2022/05/27 10:25:04;;;;;;;2.60;0.88;;;;;;;28.06;26.80;101122.29;1757206;81;26659;-52
2022/05/27 10:27:39;;;;;;;3.72;0.90;;;;;;;27.95;26.66;101119.01;1729251;82;26488;-57
2022/05/27 10:30:29;;;;;;;6.28;0.80;;;;;;;27.87;26.78;101111.09;1704985;84;28323;-55
2022/05/27 10:33:13;;;;;;;12.15;0.95;;;;;;;27.71;26.81;101101.63;1704757;84;25510;-55
2022/05/27 10:35:40;;;;;;;7.10;1.00;;;;;;;27.62;26.45;101110.30;1692087;84;25818;-55
2022/05/27 10:38:31;;;;;;;3.47;0.90;;;;;;;27.44;26.65;101103.00;1705049;84;25845;-55
2022/05/27 10:41:15;;;;;;;3.02;0.62;;;;;;;27.40;26.64;101096.23;1704522;82;27298;-55
2022/05/27 10:44:11;;;;;;;27.07;1.60;;;;;;;27.43;26.86;101079.77;1704442;84;27517;-56
2022/05/27 10:46:51;;;;;;;3.92;0.88;;;;;;;27.61;27.08;101077.39;1724086;81;25846;-56
2022/05/27 10:49:57;;;;;;;10.85;1.20;;;;;;;27.79;27.14;101063.97;1734625;81;25748;-55
2022/05/27 10:52:46;;;;;;;5.70;0.78;;;;;;;28.30;27.01;101066.91;1734266;82;25805;-55
2022/05/27 10:55:33;;;;;;;4.65;0.70;;;;;;;29.49;26.15;101061.41;1741499;81;25630;-55
2022/05/27 11:04:48;;;;;;;2.67;0.80;;;;;;;30.68;23.82;101050.25;1758703;81;25738;-56
2022/05/27 11:07:38;;;;;;;6.12;0.82;;;;;;;31.27;23.27;101042.92;1758363;81;25813;-56
2022/05/27 11:10:22;;;;;;;13.40;1.10;;;;;;;31.77;21.81;101030.95;1757020;81;27224;-56
2022/05/27 11:16:40;;;;;;;3.67;0.70;;;;;;;33.88;19.90;101018.56;1766800;81;45292;-56
2022/05/27 11:19:21;;;;;;;0.90;0.40;;;;;;;34.80;18.12;101010.05;1766811;81;25753;-56
2022/05/27 11:22:10;;;;;;;10.03;1.25;;;;;;;35.36;17.67;101005.81;1758114;81;25842;-55
2022/05/27 11:25:06;;;;;;;3.90;0.60;;;;;;;35.83;17.05;100996.25;1759747;81;25751;-56
2022/05/27 11:27:59;;;;;;;10.30;0.93;;;;;;;36.24;16.76;100993.42;1766554;81;27328;-57
2022/05/27 11:30:49;;;;;;;2.35;0.65;;;;;;;36.67;16.70;100991.62;1693031;84;25737;-56
2022/05/27 11:33:54;;;;;;;6.97;0.80;;;;;;;37.25;16.22;100977.04;1692147;83;25948;-56
2022/05/27 11:36:38;;;;;;;7.12;1.17;;;;;;;37.78;15.67;100972.56;1704035;84;25863;-56
2022/05/27 11:39:35;;;;;;;5.60;0.93;;;;;;;38.08;15.97;100965.97;1673334;84;26180;-56
2022/05/27 11:42:49;;;;;;;2.52;0.60;;;;;;;38.34;15.05;100954.95;1693053;84;27476;-55
2022/05/27 11:45:27;;;;;;;3.50;0.60;;;;;;;38.23;14.97;100961.39;1705187;82;26354;-55
2022/05/27 11:48:26;;;;;;;1.95;0.75;;;;;;;38.10;15.21;100949.63;1705393;83;25805;-57
2022/05/27 11:51:23;;;;;;;2.70;0.60;;;;;;;38.54;14.81;100952.76;1734052;81;25996;-55
2022/05/27 11:54:13;;;;;;;9.35;1.00;;;;;;;38.13;14.43;100939.98;1704938;83;25466;-55
2022/05/27 11:57:27;;;;;;;6.90;0.90;;;;;;;37.62;14.68;100950.44;1703640;81;27672;-56
2022/05/27 12:00:08;;;;;;;4.15;0.98;;;;;;;37.72;14.62;100932.55;1709588;82;25960;-56
2022/05/27 12:03:06;;;;;;;2.22;0.85;;;;;;;37.04;15.28;100933.73;1706178;82;25515;-56
2022/05/27 12:05:50;;;;;;;3.17;0.80;;;;;;;37.32;15.56;100921.92;1725139;82;25877;-56
2022/05/27 12:08:29;;;;;;;3.05;0.70;;;;;;;36.53;16.18;100918.16;1724293;82;26144;-56
2022/05/27 12:11:04;;;;;;;5.22;0.82;;;;;;;36.64;15.98;100914.59;1722126;82;27579;-56
2022/05/27 12:13:48;;;;;;;6.87;0.60;;;;;;;35.92;16.69;100911.63;1727744;82;25768;-56
2022/05/27 12:16:27;;;;;;;2.75;0.55;;;;;;;36.40;16.25;100907.75;1720837;82;25838;-56
2022/05/27 12:19:11;;;;;;;3.33;0.50;;;;;;;37.28;15.91;100912.47;1729565;81;25832;-56
2022/05/27 12:21:49;;;;;;;4.60;1.57;;;;;;;37.80;14.68;100909.89;1724019;82;25728;-56
2022/05/27 12:24:38;;;;;;;5.85;0.70;;;;;;;37.55;14.93;100903.75;1721284;82;27497;-56
2022/05/27 12:27:07;;;;;;;5.05;0.65;;;;;;;37.88;15.00;100899.33;1730106;82;26034;-56